createdAt,value
2024-01-08T00:00:55.829Z,100903.14
2024-01-08T00:03:23.500Z,100909.61
2024-01-08T00:05:51.227Z,100907.39
2024-01-08T00:08:18.883Z,100914.70
2024-01-08T00:10:46.886Z,100912.49
2024-01-08T00:13:14.418Z,100913.69
2024-01-08T00:15:41.975Z,100909.22
2024-01-08T00:18:09.706Z,100913.30
2024-01-08T00:20:37.404Z,100909.37
2024-01-08T00:23:05.054Z,100917.38
2024-01-08T00:25:32.787Z,100914.66
2024-01-08T00:28:01.676Z,100916.02
2024-01-08T00:30:29.285Z,100919.91
2024-01-08T00:32:57.011Z,100916.84
2024-01-08T00:35:24.584Z,100919.88
2024-01-08T00:37:52.171Z,100914.60
2024-01-08T00:40:20.618Z,100919.20
2024-01-08T00:42:48.112Z,100919.87
2024-01-08T00:45:15.626Z,100923.13
2024-01-08T00:47:43.387Z,100915.42
2024-01-08T00:50:15.509Z,100918.25
2024-01-08T00:52:43.204Z,100918.73
2024-01-08T00:55:13.405Z,100919.89
2024-01-08T00:57:40.984Z,100918.87
2024-01-08T01:00:10.318Z,100913.73
2024-01-08T01:02:38.307Z,100912.01
2024-01-08T01:05:06.521Z,100914.39
2024-01-08T01:07:35.220Z,100914.39
2024-01-08T01:10:02.884Z,100911.31
2024-01-08T01:12:30.491Z,100913.88
2024-01-08T01:14:58.131Z,100906.55
2024-01-08T01:17:25.948Z,100909.95
2024-01-08T01:19:53.786Z,100907.73
2024-01-08T01:22:21.401Z,100907.70
2024-01-08T01:24:48.914Z,100908.02
2024-01-08T01:27:16.519Z,100909.38
2024-01-08T01:29:44.606Z,100913.62
2024-01-08T01:32:12.281Z,100915.80
2024-01-08T01:34:40.631Z,100915.77
2024-01-08T01:37:08.202Z,100914.23
2024-01-08T01:39:35.753Z,100920.55
2024-01-08T01:42:03.360Z,100912.92
2024-01-08T01:44:30.904Z,100915.27
2024-01-08T01:46:58.646Z,100916.05
2024-01-08T01:49:26.610Z,100915.84
2024-01-08T01:51:54.268Z,100915.98
2024-01-08T01:54:25.001Z,100916.33
2024-01-08T01:57:02.377Z,100916.84
2024-01-08T01:59:30.341Z,100916.67
2024-01-08T02:01:58.210Z,100921.59
2024-01-08T02:04:26.716Z,100926.02
2024-01-08T02:06:55.602Z,100925.54
2024-01-08T02:09:23.362Z,100929.17
2024-01-08T02:11:50.923Z,100922.00
2024-01-08T02:14:18.561Z,100929.27
2024-01-08T02:16:46.166Z,100930.04
2024-01-08T02:19:13.859Z,100936.92
2024-01-08T02:21:41.424Z,100938.63
2024-01-08T02:24:09.133Z,100939.52
2024-01-08T02:26:38.228Z,100943.45
2024-01-08T02:29:06.544Z,100941.20
2024-01-08T02:31:34.166Z,100942.18
2024-01-08T02:34:01.853Z,100943.67
2024-01-08T02:36:29.596Z,100943.18
2024-01-08T02:38:57.152Z,100945.90
2024-01-08T02:41:24.786Z,100941.81
2024-01-08T02:43:52.428Z,100943.50
2024-01-08T02:46:20.039Z,100941.75
2024-01-08T02:48:47.689Z,100943.26
2024-01-08T02:51:16.080Z,100943.73
2024-01-08T02:53:43.643Z,100941.67
2024-01-08T02:56:24.272Z,100946.39
2024-01-08T02:58:51.857Z,100943.32
2024-01-08T03:01:19.606Z,100941.77
2024-01-08T03:03:47.358Z,100948.91
2024-01-08T03:06:15.027Z,100950.48
2024-01-08T03:08:42.597Z,100944.82
2024-01-08T03:11:10.254Z,100951.04
2024-01-08T03:13:37.847Z,100952.92
2024-01-08T03:16:06.530Z,100954.55
2024-01-08T03:18:35.972Z,100952.86
2024-01-08T03:21:05.643Z,100958.58
2024-01-08T03:23:33.453Z,100954.58
2024-01-08T03:26:01.107Z,100961.69
2024-01-08T03:28:28.678Z,100964.86
2024-01-08T03:30:56.559Z,100964.39
2024-01-08T03:33:24.454Z,100962.36
2024-01-08T03:35:52.321Z,100964.61
2024-01-08T03:38:19.912Z,100961.51
2024-01-08T03:40:47.458Z,100970.20
2024-01-08T03:43:15.015Z,100965.64
2024-01-08T03:45:42.633Z,100963.52
2024-01-08T03:48:10.322Z,100970.08
2024-01-08T03:50:38.085Z,100973.60
2024-01-08T03:53:05.820Z,100982.64
2024-01-08T03:55:35.476Z,100984.73
2024-01-08T03:58:03.260Z,100985.66
2024-01-08T04:00:30.913Z,100981.98
2024-01-08T04:02:58.471Z,100988.17
2024-01-08T04:05:26.233Z,100984.09
2024-01-08T04:07:53.920Z,100988.89
2024-01-08T04:10:21.669Z,100988.39
2024-01-08T04:12:49.212Z,100988.92
2024-01-08T04:15:16.774Z,100990.21
2024-01-08T04:17:44.765Z,100992.52
2024-01-08T04:20:13.209Z,100994.36
2024-01-08T04:22:45.402Z,100998.27
2024-01-08T04:25:13.048Z,100989.92
2024-01-08T04:27:40.608Z,100996.21
2024-01-08T04:30:08.693Z,100998.24
2024-01-08T04:32:37.358Z,100997.25
2024-01-08T04:35:05.842Z,101003.94
2024-01-08T04:37:33.511Z,101002.78
2024-01-08T04:40:01.067Z,101005.61
2024-01-08T04:42:28.623Z,101006.92
2024-01-08T04:44:56.185Z,101011.95
2024-01-08T04:47:23.836Z,101014.61
2024-01-08T04:49:51.459Z,101014.48
2024-01-08T04:52:19.067Z,101014.80
2024-01-08T04:54:46.942Z,101021.23
2024-01-08T04:57:14.516Z,101020.71
2024-01-08T04:59:43.193Z,101026.34
2024-01-08T05:02:11.657Z,101023.98
2024-01-08T05:04:39.332Z,101033.34
2024-01-08T05:07:06.895Z,101039.00
2024-01-08T05:09:34.455Z,101041.77
2024-01-08T05:12:02.014Z,101042.17
2024-01-08T05:14:29.728Z,101044.44
2024-01-08T05:16:57.615Z,101046.88
2024-01-08T05:19:26.395Z,101041.98
2024-01-08T05:21:54.810Z,101051.05
2024-01-08T05:24:22.504Z,101055.06
2024-01-08T05:26:50.057Z,101058.14
2024-01-08T05:29:18.466Z,101062.75
2024-01-08T05:31:46.481Z,101065.29
2024-01-08T05:34:14.072Z,101070.04
2024-01-08T05:36:43.119Z,101077.70
2024-01-08T05:39:10.707Z,101079.07
2024-01-08T05:41:42.349Z,101080.89
2024-01-08T05:44:10.326Z,101080.85
2024-01-08T05:46:43.329Z,101086.13
2024-01-08T05:49:11.319Z,101085.54
2024-01-08T05:51:39.145Z,101091.31
2024-01-08T05:54:06.714Z,101090.58
2024-01-08T05:56:34.360Z,101098.42
2024-01-08T05:59:02.047Z,101102.61
2024-01-08T06:01:29.552Z,101104.64
2024-01-08T06:05:45.047Z,101106.84
2024-01-08T06:08:12.831Z,101111.77
2024-01-08T06:10:41.318Z,101113.35
2024-01-08T06:13:10.212Z,101110.07
2024-01-08T06:15:38.291Z,101113.00
2024-01-08T06:18:06.325Z,101114.11
2024-01-08T06:20:35.226Z,101117.70
2024-01-08T06:23:06.173Z,101119.82
2024-01-08T06:25:34.054Z,101119.16
2024-01-08T06:28:01.659Z,101122.02
2024-01-08T06:30:29.235Z,101128.30
2024-01-08T06:32:56.996Z,101126.96
2024-01-08T06:35:25.416Z,101130.70
2024-01-08T06:37:53.182Z,101127.80
2024-01-08T06:40:21.810Z,101133.59
2024-01-08T06:43:00.029Z,101134.97
2024-01-08T06:45:29.891Z,101136.57
2024-01-08T06:47:57.644Z,101144.83
2024-01-08T06:50:25.649Z,101139.59
2024-01-08T06:52:53.270Z,101139.55
2024-01-08T06:55:20.845Z,101140.02
2024-01-08T06:57:50.659Z,101147.48
2024-01-08T07:00:19.545Z,101141.48
2024-01-08T07:02:47.334Z,101144.70
2024-01-08T07:05:15.634Z,101147.46
2024-01-08T07:07:43.264Z,101150.40
2024-01-08T07:10:10.917Z,101152.81
2024-01-08T07:12:39.001Z,101156.06
2024-01-08T07:15:07.216Z,101157.61
2024-01-08T07:17:35.049Z,101154.48
2024-01-08T07:20:03.886Z,101157.48
2024-01-08T07:22:31.657Z,101159.27
2024-01-08T07:24:59.255Z,101169.15
2024-01-08T07:27:27.369Z,101167.98
2024-01-08T07:29:55.499Z,101174.30
2024-01-08T07:32:23.121Z,101173.08
2024-01-08T07:34:50.826Z,101169.35
2024-01-08T07:37:18.321Z,101173.30
2024-01-08T07:39:45.946Z,101173.02
2024-01-08T07:42:13.499Z,101176.48
2024-01-08T07:44:41.123Z,101173.30
2024-01-08T07:47:08.743Z,101176.55
2024-01-08T07:49:36.282Z,101177.40
2024-01-08T07:52:04.131Z,101179.45
2024-01-08T07:54:31.849Z,101179.36
2024-01-08T07:57:02.712Z,101175.34
2024-01-08T07:59:31.196Z,101183.63
2024-01-08T08:01:59.065Z,101182.62
2024-01-08T08:04:27.005Z,101182.92
2024-01-08T08:06:54.671Z,101185.70
2024-01-08T08:09:22.312Z,101183.40
2024-01-08T08:11:50.356Z,101187.45
2024-01-08T08:14:17.935Z,101193.10
2024-01-08T08:16:45.577Z,101202.96
2024-01-08T08:19:13.120Z,101201.93
2024-01-08T08:21:40.902Z,101200.79
2024-01-08T08:24:09.368Z,101205.43
2024-01-08T08:26:38.742Z,101201.13
2024-01-08T08:29:06.289Z,101203.45
2024-01-08T08:31:33.955Z,101206.58
2024-01-08T08:34:01.627Z,101201.61
2024-01-08T08:36:29.279Z,101200.63
2024-01-08T08:38:58.088Z,101209.70
2024-01-08T08:41:25.718Z,101206.82
2024-01-08T08:43:55.385Z,101204.42
2024-01-08T08:46:23.196Z,101201.99
2024-01-08T08:48:50.777Z,101206.08
2024-01-08T08:51:18.386Z,101203.33
2024-01-08T08:53:46.228Z,101205.85
2024-01-08T08:56:14.061Z,101213.05
2024-01-08T08:58:41.883Z,101207.89
2024-01-08T09:01:10.044Z,101211.12
2024-01-08T09:03:40.103Z,101210.27
2024-01-08T09:06:09.388Z,101202.29
2024-01-08T09:08:37.148Z,101203.49
2024-01-08T09:11:04.764Z,101208.95
2024-01-08T09:13:34.001Z,101202.41
2024-01-08T09:16:01.653Z,101205.88
2024-01-08T09:18:29.228Z,101209.50
2024-01-08T09:20:57.000Z,101206.95
2024-01-08T09:23:24.667Z,101210.44
2024-01-08T09:25:52.241Z,101204.87
2024-01-08T09:28:19.964Z,101197.23
2024-01-08T09:30:49.349Z,101200.52
2024-01-08T09:33:17.093Z,101197.80
2024-01-08T09:35:44.919Z,101197.75
2024-01-08T09:38:12.525Z,101199.73
2024-01-08T09:40:40.118Z,101201.16
2024-01-08T09:43:10.776Z,101203.61
2024-01-08T09:45:42.213Z,101197.16
2024-01-08T09:48:10.111Z,101200.42
2024-01-08T09:50:39.043Z,101197.23
2024-01-08T09:53:06.838Z,101201.83
2024-01-08T09:55:34.387Z,101195.95
2024-01-08T09:58:02.569Z,101189.90
2024-01-08T10:00:30.332Z,101190.77
2024-01-08T10:02:58.677Z,101191.50
2024-01-08T10:05:30.846Z,101185.55
2024-01-08T10:08:02.377Z,101177.92
2024-01-08T10:10:30.607Z,101182.73
2024-01-08T10:12:58.591Z,101182.43
2024-01-08T10:15:26.955Z,101180.59
2024-01-08T10:17:57.247Z,101181.47
2024-01-08T10:20:25.216Z,101176.34
2024-01-08T10:23:10.308Z,101174.93
2024-01-08T10:25:38.417Z,101176.81
2024-01-08T10:28:10.141Z,101175.42
2024-01-08T10:30:38.125Z,101173.40
2024-01-08T10:33:05.838Z,101171.36
2024-01-08T10:35:34.057Z,101173.77
2024-01-08T10:38:01.715Z,101175.69
2024-01-08T10:40:32.603Z,101176.00
2024-01-08T10:43:00.620Z,101183.84
2024-01-08T10:45:28.189Z,101177.34
2024-01-08T10:48:11.722Z,101180.74
2024-01-08T10:50:40.220Z,101176.33
2024-01-08T10:53:10.143Z,101180.04
2024-01-08T10:55:37.779Z,101180.53
2024-01-08T10:58:09.281Z,101179.16
2024-01-08T11:00:36.943Z,101181.89
2024-01-08T11:03:05.173Z,101179.83
2024-01-08T11:05:36.138Z,101181.05
2024-01-08T11:08:03.905Z,101177.30
2024-01-08T11:10:31.633Z,101169.44
2024-01-08T11:12:59.392Z,101171.89
2024-01-08T11:15:28.706Z,101170.66
2024-01-08T11:17:59.544Z,101183.36
2024-01-08T11:20:41.506Z,101182.18
2024-01-08T11:23:40.411Z,101186.29
2024-01-08T11:26:21.574Z,101184.14
2024-01-08T11:29:06.594Z,101180.44
2024-01-08T11:31:50.047Z,101167.79
2024-01-08T11:34:48.625Z,101177.81
2024-01-08T11:37:33.100Z,101179.13
2024-01-08T11:40:21.605Z,101185.27
2024-01-08T11:42:50.682Z,101181.88
2024-01-08T11:45:18.471Z,101188.24
2024-01-08T11:47:47.351Z,101182.16
2024-01-08T11:50:16.421Z,101187.69
2024-01-08T11:52:44.311Z,101186.70
2024-01-08T11:55:12.013Z,101179.23
2024-01-08T11:57:39.842Z,101182.27
2024-01-08T12:00:20.552Z,101193.06
2024-01-08T12:02:48.994Z,101188.70
2024-01-08T12:05:17.227Z,101191.49
2024-01-08T12:07:45.239Z,101194.40
2024-01-08T12:10:14.290Z,101189.63
2024-01-08T12:12:42.328Z,101189.84
2024-01-08T12:15:10.440Z,101189.88
2024-01-08T12:17:39.178Z,101189.77
2024-01-08T12:20:07.863Z,101195.75
2024-01-08T12:22:36.034Z,101191.36
2024-01-08T12:25:05.933Z,101191.84
2024-01-08T12:27:34.269Z,101203.05
2024-01-08T12:30:02.750Z,101205.58
2024-01-08T12:32:30.685Z,101208.80
2024-01-08T12:35:01.922Z,101208.09
2024-01-08T12:37:34.570Z,101214.55
2024-01-08T12:40:03.744Z,101221.03
2024-01-08T12:42:34.658Z,101218.56
2024-01-08T12:45:02.221Z,101222.91
2024-01-08T12:47:30.503Z,101234.73
2024-01-08T12:49:58.208Z,101238.79
2024-01-08T12:52:25.986Z,101241.10
2024-01-08T12:54:53.545Z,101248.19
2024-01-08T12:57:21.512Z,101259.57
2024-01-08T12:59:56.385Z,101257.84
2024-01-08T13:02:24.797Z,101260.70
2024-01-08T13:04:53.846Z,101268.94
2024-01-08T13:07:22.097Z,101274.02
2024-01-08T13:09:49.961Z,101266.66
2024-01-08T13:12:18.313Z,101276.55
2024-01-08T13:14:46.066Z,101265.43
2024-01-08T13:17:14.795Z,101273.36
2024-01-08T13:19:42.932Z,101279.28
2024-01-08T13:22:12.265Z,101283.52
2024-01-08T13:24:40.385Z,101284.92
2024-01-08T13:27:14.693Z,101289.04
2024-01-08T13:29:43.100Z,101291.23
2024-01-08T13:32:12.263Z,101296.27
2024-01-08T13:34:40.363Z,101294.77
2024-01-08T13:37:08.073Z,101296.94
2024-01-08T13:39:36.744Z,101305.10
2024-01-08T13:42:04.631Z,101303.05
2024-01-08T13:44:32.332Z,101301.84
2024-01-08T13:47:03.257Z,101307.23
2024-01-08T13:49:30.934Z,101303.73
2024-01-08T13:51:58.667Z,101313.21
2024-01-08T13:54:26.339Z,101319.71
2024-01-08T13:56:54.240Z,101319.89
2024-01-08T13:59:21.884Z,101326.86
2024-01-08T14:01:49.409Z,101332.77
2024-01-08T14:04:16.980Z,101335.83
2024-01-08T14:06:44.837Z,101335.43
2024-01-08T14:09:14.440Z,101338.67
2024-01-08T14:11:42.184Z,101344.79
2024-01-08T14:14:10.017Z,101344.55
2024-01-08T14:16:37.743Z,101347.94
2024-01-08T14:19:05.317Z,101352.34
2024-01-08T14:21:32.961Z,101356.33
2024-01-08T14:24:00.652Z,101356.80
2024-01-08T14:26:28.466Z,101357.92
2024-01-08T14:28:56.353Z,101356.89
2024-01-08T14:31:23.858Z,101357.15
2024-01-08T14:33:51.559Z,101360.46
2024-01-08T14:36:20.770Z,101365.77
2024-01-08T14:38:48.404Z,101363.15
2024-01-08T14:41:16.311Z,101367.41
2024-01-08T14:43:44.693Z,101368.80
2024-01-08T14:46:12.350Z,101370.86
2024-01-08T14:48:40.168Z,101376.08
2024-01-08T14:51:09.982Z,101378.27
2024-01-08T14:53:37.913Z,101383.54
2024-01-08T14:56:06.162Z,101379.49
2024-01-08T14:58:33.943Z,101386.86
2024-01-08T15:01:01.553Z,101381.40
2024-01-08T15:03:29.181Z,101385.22
2024-01-08T15:05:56.872Z,101391.79
2024-01-08T15:08:24.561Z,101394.66
2024-01-08T15:10:52.351Z,101395.23
2024-01-08T15:13:20.221Z,101399.86
2024-01-08T15:15:47.772Z,101403.29
2024-01-08T15:18:15.634Z,101408.08
2024-01-08T15:20:43.550Z,101409.48
2024-01-08T15:23:11.264Z,101407.31
2024-01-08T15:25:38.781Z,101406.97
2024-01-08T15:28:07.529Z,101412.41
2024-01-08T15:30:35.217Z,101416.05
2024-01-08T15:33:03.388Z,101417.03
2024-01-08T15:35:32.601Z,101419.33
2024-01-08T15:38:00.386Z,101426.87
2024-01-08T15:40:28.089Z,101425.17
2024-01-08T15:42:55.654Z,101430.40
2024-01-08T15:45:23.301Z,101436.80
2024-01-08T15:47:50.831Z,101437.23
2024-01-08T15:50:18.597Z,101447.44
2024-01-08T15:52:46.401Z,101448.02
2024-01-08T15:55:15.123Z,101448.05
2024-01-08T15:57:44.210Z,101456.13
2024-01-08T16:00:12.658Z,101453.56
2024-01-08T16:02:40.354Z,101453.76
2024-01-08T16:05:09.082Z,101468.23
2024-01-08T16:07:36.905Z,101469.51
2024-01-08T16:10:05.213Z,101475.01
2024-01-08T16:12:32.805Z,101473.96
2024-01-08T16:15:00.360Z,101478.76
2024-01-08T16:17:28.078Z,101479.93
2024-01-08T16:19:56.157Z,101481.34
2024-01-08T16:22:24.377Z,101486.95
2024-01-08T16:24:52.036Z,101487.91
2024-01-08T16:27:19.715Z,101495.04
2024-01-08T16:29:47.502Z,101499.31
2024-01-08T16:32:15.316Z,101502.64
2024-01-08T16:34:49.565Z,101501.36
2024-01-08T16:37:23.043Z,101504.55
2024-01-08T16:39:51.954Z,101508.05
2024-01-08T16:42:19.600Z,101509.34
2024-01-08T16:44:47.284Z,101521.27
2024-01-08T16:47:16.277Z,101517.30
2024-01-08T16:49:43.841Z,101521.02
2024-01-08T16:52:11.783Z,101521.66
2024-01-08T16:54:39.342Z,101521.05
2024-01-08T16:57:07.019Z,101527.70
2024-01-08T16:59:34.562Z,101527.39
2024-01-08T17:02:03.416Z,101538.45
2024-01-08T17:04:31.156Z,101540.33
2024-01-08T17:06:58.780Z,101552.67
2024-01-08T17:09:26.350Z,101559.66
2024-01-08T17:11:54.007Z,101559.15
2024-01-08T17:14:21.810Z,101567.61
2024-01-08T17:16:49.663Z,101567.39
2024-01-08T17:19:17.267Z,101571.98
2024-01-08T17:21:44.971Z,101577.20
2024-01-08T17:24:12.676Z,101579.25
2024-01-08T17:26:41.090Z,101577.68
2024-01-08T17:29:09.405Z,101576.42
2024-01-08T17:31:38.366Z,101579.61
2024-01-08T17:34:06.323Z,101587.79
2024-01-08T17:36:34.320Z,101584.41
2024-01-08T17:39:01.983Z,101588.48
2024-01-08T17:41:30.070Z,101588.88
2024-01-08T17:43:57.910Z,101590.75
2024-01-08T17:46:25.576Z,101591.98
2024-01-08T17:48:54.791Z,101594.48
2024-01-08T17:51:22.345Z,101595.38
2024-01-08T17:53:50.178Z,101598.05
2024-01-08T17:56:17.888Z,101609.19
2024-01-08T17:58:45.562Z,101613.75
2024-01-08T18:01:13.319Z,101613.05
2024-01-08T18:03:40.851Z,101616.25
2024-01-08T18:06:08.531Z,101612.44
2024-01-08T18:08:36.252Z,101614.34
2024-01-08T18:11:04.030Z,101619.48
2024-01-08T18:13:31.609Z,101621.71
2024-01-08T18:15:59.211Z,101622.38
2024-01-08T18:18:26.890Z,101622.92
2024-01-08T18:20:54.569Z,101621.86
2024-01-08T18:24:38.842Z,101623.40
2024-01-08T18:27:07.210Z,101627.55
2024-01-08T18:29:34.819Z,101627.86
2024-01-08T18:32:02.842Z,101630.14
2024-01-08T18:34:32.548Z,101634.43
2024-01-08T18:37:01.259Z,101634.67
2024-01-08T18:39:28.914Z,101628.73
2024-01-08T18:41:57.763Z,101635.11
2024-01-08T18:44:26.086Z,101639.27
2024-01-08T18:46:54.050Z,101645.33
2024-01-08T18:49:22.047Z,101653.09
2024-01-08T18:51:51.005Z,101654.63
2024-01-08T18:54:19.806Z,101653.00
2024-01-08T18:56:47.495Z,101654.15
2024-01-08T18:59:15.156Z,101655.38
2024-01-08T19:01:43.814Z,101665.79
2024-01-08T19:04:11.627Z,101664.36
2024-01-08T19:06:39.385Z,101672.75
2024-01-08T19:09:07.014Z,101675.73
2024-01-08T19:11:34.650Z,101669.56
2024-01-08T19:14:02.700Z,101669.96
2024-01-08T19:16:30.308Z,101671.19
2024-01-08T19:18:58.022Z,101680.77
2024-01-08T19:21:25.625Z,101680.52
2024-01-08T19:23:55.861Z,101681.73
2024-01-08T19:26:23.542Z,101691.04
2024-01-08T19:28:51.375Z,101693.76
2024-01-08T19:31:19.727Z,101699.31
2024-01-08T19:33:47.367Z,101698.02
2024-01-08T19:36:15.276Z,101689.55
2024-01-08T19:38:43.065Z,101687.48
2024-01-08T19:41:10.836Z,101685.40
2024-01-08T19:43:39.087Z,101679.94
2024-01-08T19:46:06.749Z,101682.67
2024-01-08T19:48:34.351Z,101686.67
2024-01-08T19:51:02.128Z,101687.91
2024-01-08T19:53:29.883Z,101695.98
2024-01-08T19:55:57.495Z,101693.12
2024-01-08T19:58:25.134Z,101697.98
2024-01-08T20:00:53.328Z,101703.86
2024-01-08T20:03:20.997Z,101703.20
2024-01-08T20:05:48.661Z,101704.52
2024-01-08T20:08:16.535Z,101709.73
2024-01-08T20:10:44.192Z,101711.52
2024-01-08T20:13:11.839Z,101714.84
2024-01-08T20:15:39.620Z,101716.27
2024-01-08T20:18:07.944Z,101713.41
2024-01-08T20:20:36.230Z,101710.51
2024-01-08T20:23:04.678Z,101715.66
2024-01-08T20:25:32.332Z,101723.61
2024-01-08T20:27:59.880Z,101721.60
2024-01-08T20:30:27.593Z,101734.92
2024-01-08T20:32:55.645Z,101736.17
2024-01-08T20:35:23.301Z,101743.68
2024-01-08T20:37:51.078Z,101743.75
2024-01-08T20:40:18.690Z,101744.40
2024-01-08T20:42:46.454Z,101750.86
2024-01-08T20:45:14.242Z,101754.56
2024-01-08T20:47:41.958Z,101765.27
2024-01-08T20:50:10.208Z,101762.30
2024-01-08T20:52:38.032Z,101762.52
2024-01-08T20:55:06.041Z,101765.21
2024-01-08T20:57:33.671Z,101772.46
2024-01-08T21:00:01.218Z,101775.64
2024-01-08T21:02:28.935Z,101781.58
2024-01-08T21:04:56.542Z,101782.52
2024-01-08T21:07:24.260Z,101788.20
2024-01-08T21:09:51.874Z,101795.01
2024-01-08T21:12:19.636Z,101797.75
2024-01-08T21:14:47.234Z,101801.34
2024-01-08T21:17:15.136Z,101800.34
2024-01-08T21:19:42.822Z,101808.30
2024-01-08T21:22:12.638Z,101809.77
2024-01-08T21:24:40.050Z,101810.09
2024-01-08T21:27:07.669Z,101808.96
2024-01-08T21:29:35.386Z,101810.23
2024-01-08T21:32:03.176Z,101815.02
2024-01-08T21:34:30.857Z,101821.98
2024-01-08T21:36:59.176Z,101828.52
2024-01-08T21:39:26.788Z,101824.56
2024-01-08T21:41:54.807Z,101820.64
2024-01-08T21:44:22.570Z,101820.02
2024-01-08T21:46:50.326Z,101824.77
2024-01-08T21:49:18.113Z,101819.73
2024-01-08T21:51:45.821Z,101824.59
2024-01-08T21:54:13.376Z,101818.55
2024-01-08T21:56:40.963Z,101819.20
2024-01-08T21:59:08.655Z,101821.54
2024-01-08T22:01:36.106Z,101820.91
2024-01-08T22:04:03.708Z,101827.77
2024-01-08T22:06:31.403Z,101842.84
2024-01-08T22:08:59.041Z,101845.27
2024-01-08T22:11:26.626Z,101843.66
2024-01-08T22:13:55.185Z,101842.30
2024-01-08T22:16:22.743Z,101845.55
2024-01-08T22:18:50.506Z,101852.57
2024-01-08T22:21:18.795Z,101854.05
2024-01-08T22:23:46.590Z,101855.52
2024-01-08T22:26:14.322Z,101843.42
2024-01-08T22:28:42.176Z,101843.93
2024-01-08T22:31:09.806Z,101840.14
2024-01-08T22:33:37.423Z,101838.27
2024-01-08T22:36:05.513Z,101838.73
2024-01-08T22:38:33.114Z,101839.56
2024-01-08T22:41:00.790Z,101845.02
2024-01-08T22:43:28.248Z,101842.10
2024-01-08T22:45:55.655Z,101839.23
2024-01-08T22:48:23.324Z,101835.15
2024-01-08T22:50:51.570Z,101844.76
2024-01-08T22:53:19.249Z,101844.48
2024-01-08T22:55:47.283Z,101846.80
2024-01-08T22:58:14.837Z,101840.80
2024-01-08T23:00:42.420Z,101847.56
2024-01-08T23:03:10.064Z,101848.21
2024-01-08T23:05:37.872Z,101841.88
2024-01-08T23:08:06.031Z,101837.73
2024-01-08T23:10:33.662Z,101841.80
2024-01-08T23:13:03.065Z,101843.72
2024-01-08T23:15:30.730Z,101839.95
2024-01-08T23:17:58.385Z,101836.87
2024-01-08T23:20:26.136Z,101839.05
2024-01-08T23:22:53.828Z,101850.20
2024-01-08T23:25:21.274Z,101860.55
2024-01-08T23:27:49.340Z,101865.27
2024-01-08T23:30:17.004Z,101875.70
2024-01-08T23:32:44.811Z,101876.81
2024-01-08T23:35:12.620Z,101874.98
2024-01-08T23:37:40.296Z,101881.95
2024-01-08T23:40:09.220Z,101883.11
2024-01-08T23:42:36.863Z,101887.80
2024-01-08T23:45:04.825Z,101898.23
2024-01-08T23:47:32.605Z,101892.45
2024-01-08T23:50:01.614Z,101892.73
2024-01-08T23:52:31.318Z,101898.85
2024-01-08T23:55:00.079Z,101900.63
2024-01-08T23:57:27.611Z,101902.98
2024-01-08T23:59:55.240Z,101900.86
